createdAt,value
2022-09-23T00:01:26.751Z,14.24
2022-09-23T00:03:54.806Z,14.19
2022-09-23T00:06:24.450Z,14.17
2022-09-23T00:08:52.901Z,14.11
2022-09-23T00:11:28.676Z,14.14
2022-09-23T00:14:00.128Z,14.14
2022-09-23T00:16:32.648Z,14.13
2022-09-23T00:19:02.469Z,14.10
2022-09-23T00:21:30.211Z,14.07
2022-09-23T00:23:57.968Z,14.06
2022-09-23T00:26:25.751Z,14.06
2022-09-23T00:28:53.647Z,14.09
2022-09-23T00:31:26.030Z,14.11
2022-09-23T00:33:56.809Z,14.11
2022-09-23T00:36:26.301Z,14.13
2022-09-23T00:38:55.104Z,14.13
2022-09-23T00:41:23.200Z,14.10
2022-09-23T00:43:50.818Z,14.12
2022-09-23T00:46:23.539Z,14.10
2022-09-23T00:49:03.079Z,14.10
2022-09-23T00:51:38.645Z,14.09
2022-09-23T00:54:07.013Z,14.06
2022-09-23T00:56:36.837Z,14.04
2022-09-23T00:59:07.456Z,14.03
2022-09-23T01:01:37.394Z,14.02
2022-09-23T01:04:07.923Z,14.02
2022-09-23T01:06:36.217Z,13.99
2022-09-23T01:09:04.581Z,13.96
2022-09-23T01:12:00.750Z,13.91
2022-09-23T01:14:55.976Z,13.91
2022-09-23T01:17:34.418Z,13.93
2022-09-23T01:20:35.847Z,13.86
2022-09-23T01:23:42.646Z,13.83
2022-09-23T01:26:37.499Z,13.83
2022-09-23T01:29:29.610Z,13.81
2022-09-23T01:32:07.023Z,13.74
2022-09-23T01:34:47.238Z,13.77
2022-09-23T01:37:32.148Z,13.81
2022-09-23T01:40:54.163Z,13.75
2022-09-23T01:43:40.903Z,13.78
2022-09-23T01:46:31.566Z,13.79
2022-09-23T01:49:31.706Z,13.79
2022-09-23T01:52:17.921Z,13.77
2022-09-23T01:55:06.021Z,13.76
2022-09-23T01:57:43.710Z,13.73
2022-09-23T02:00:17.277Z,13.63
2022-09-23T02:03:27.488Z,13.58
2022-09-23T02:06:39.065Z,13.51
2022-09-23T02:09:15.777Z,13.53
2022-09-23T02:11:49.157Z,13.50
2022-09-23T02:14:30.474Z,13.52
2022-09-23T02:17:08.533Z,13.55
2022-09-23T02:19:54.028Z,13.57
2022-09-23T02:22:56.107Z,13.53
2022-09-23T02:25:35.485Z,13.48
2022-09-23T02:28:20.118Z,13.44
2022-09-23T02:31:01.684Z,13.43
2022-09-23T02:34:08.606Z,13.37
2022-09-23T02:36:56.172Z,13.33
2022-09-23T02:39:50.094Z,13.35
2022-09-23T02:42:24.300Z,13.36
2022-09-23T02:44:52.201Z,13.31
2022-09-23T02:47:27.936Z,13.32
2022-09-23T02:49:56.440Z,13.31
2022-09-23T02:52:25.125Z,13.28
2022-09-23T02:54:53.147Z,13.26
2022-09-23T02:57:21.080Z,13.23
2022-09-23T02:59:50.592Z,13.21
2022-09-23T03:02:34.506Z,13.22
2022-09-23T03:05:05.250Z,13.20
2022-09-23T03:08:07.532Z,13.12
2022-09-23T03:10:59.512Z,13.12
2022-09-23T03:13:51.344Z,13.10
2022-09-23T03:16:32.494Z,13.08
2022-09-23T03:19:42.413Z,13.05
2022-09-23T03:22:24.448Z,13.06
2022-09-23T03:24:56.013Z,13.05
2022-09-23T03:27:27.474Z,12.92
2022-09-23T03:29:56.894Z,12.89
2022-09-23T03:32:28.215Z,12.92
2022-09-23T03:34:59.906Z,12.92
2022-09-23T03:37:44.191Z,12.93
2022-09-23T03:40:33.746Z,12.92
2022-09-23T03:43:05.165Z,12.89
2022-09-23T03:45:34.693Z,12.83
2022-09-23T03:48:03.084Z,12.80
2022-09-23T03:50:30.850Z,12.79
2022-09-23T03:52:59.385Z,12.80
2022-09-23T03:55:27.375Z,12.80
2022-09-23T03:57:55.756Z,12.82
2022-09-23T04:00:23.597Z,12.83
2022-09-23T04:02:51.374Z,12.84
2022-09-23T04:05:19.189Z,12.84
2022-09-23T04:07:48.154Z,12.81
2022-09-23T04:10:16.019Z,12.75
2022-09-23T04:12:43.782Z,12.72
2022-09-23T04:15:11.944Z,12.72
2022-09-23T04:17:39.788Z,12.72
2022-09-23T04:20:07.958Z,12.68
2022-09-23T04:22:38.697Z,12.63
2022-09-23T04:25:07.375Z,12.60
2022-09-23T04:27:37.745Z,12.58
2022-09-23T04:30:07.093Z,12.62
2022-09-23T04:32:34.850Z,12.64
2022-09-23T04:35:02.625Z,12.65
2022-09-23T04:37:30.479Z,12.62
2022-09-23T04:39:58.238Z,12.62
2022-09-23T04:42:30.095Z,12.65
2022-09-23T04:44:58.099Z,12.61
2022-09-23T04:47:26.187Z,12.60
2022-09-23T04:49:57.759Z,12.58
2022-09-23T04:52:27.481Z,12.58
2022-09-23T04:54:55.245Z,12.57
2022-09-23T04:57:23.220Z,12.58
2022-09-23T04:59:51.107Z,12.55
2022-09-23T05:02:18.974Z,12.56
2022-09-23T05:04:46.977Z,12.53
2022-09-23T05:07:15.341Z,12.51
2022-09-23T05:09:43.098Z,12.48
2022-09-23T05:12:11.445Z,12.45
2022-09-23T05:14:39.249Z,12.44
2022-09-23T05:17:07.092Z,12.41
2022-09-23T05:19:35.524Z,12.36
2022-09-23T05:22:05.577Z,12.36
2022-09-23T05:24:33.363Z,12.37
2022-09-23T05:27:01.080Z,12.40
2022-09-23T05:29:29.212Z,12.41
2022-09-23T05:31:57.027Z,12.45
2022-09-23T05:34:24.887Z,12.43
2022-09-23T05:36:52.675Z,12.41
2022-09-23T05:39:20.482Z,12.44
2022-09-23T05:41:49.078Z,12.46
2022-09-23T05:44:17.891Z,12.41
2022-09-23T05:46:45.694Z,12.37
2022-09-23T05:49:13.509Z,12.40
2022-09-23T05:51:41.258Z,12.48
2022-09-23T05:54:09.429Z,12.51
2022-09-23T05:56:38.095Z,12.59
2022-09-23T05:59:06.336Z,12.63
2022-09-23T06:01:36.768Z,12.63
2022-09-23T06:04:08.158Z,12.65
2022-09-23T06:06:42.080Z,12.71
2022-09-23T06:09:15.211Z,12.79
2022-09-23T06:11:43.310Z,12.89
2022-09-23T06:14:14.970Z,12.95
2022-09-23T06:16:43.197Z,13.01
2022-09-23T06:19:11.213Z,13.08
2022-09-23T06:21:40.924Z,13.13
2022-09-23T06:24:09.711Z,13.18
2022-09-23T06:26:38.357Z,13.23
2022-09-23T06:29:12.023Z,13.29
2022-09-23T06:31:42.101Z,13.30
2022-09-23T06:34:13.640Z,13.29
2022-09-23T06:36:45.482Z,13.32
2022-09-23T06:39:17.175Z,13.36
2022-09-23T06:41:45.582Z,13.42
2022-09-23T06:44:14.909Z,13.50
2022-09-23T06:46:43.258Z,13.61
2022-09-23T06:49:14.167Z,13.67
2022-09-23T06:51:42.300Z,13.73
2022-09-23T06:54:11.174Z,13.79
2022-09-23T06:56:40.059Z,13.86
2022-09-23T06:59:13.116Z,13.93
2022-09-23T07:01:41.678Z,14.03
2022-09-23T07:04:10.843Z,14.05
2022-09-23T07:06:39.227Z,14.06
2022-09-23T07:09:08.467Z,14.10
2022-09-23T07:11:37.113Z,14.13
2022-09-23T07:14:05.118Z,14.17
2022-09-23T07:16:33.095Z,14.21
2022-09-23T07:19:00.856Z,14.29
2022-09-23T07:21:28.657Z,14.39
2022-09-23T07:23:58.254Z,14.48
2022-09-23T07:26:26.666Z,14.55
2022-09-23T07:29:04.711Z,14.60
2022-09-23T07:31:39.711Z,14.66
2022-09-23T07:34:16.513Z,14.74
2022-09-23T07:36:45.183Z,14.80
2022-09-23T07:39:14.028Z,14.90
2022-09-23T07:41:44.247Z,14.97
2022-09-23T07:44:12.479Z,15.04
2022-09-23T07:46:40.485Z,15.10
2022-09-23T07:49:08.655Z,15.19
2022-09-23T07:51:39.423Z,15.28
2022-09-23T07:54:13.281Z,15.34
2022-09-23T07:56:42.043Z,15.48
2022-09-23T07:59:18.308Z,15.50
2022-09-23T08:01:50.636Z,15.52
2022-09-23T08:04:21.698Z,15.53
2022-09-23T08:06:57.604Z,15.58
2022-09-23T08:09:35.568Z,15.64
2022-09-23T08:12:03.610Z,15.64
2022-09-23T08:14:31.893Z,15.71
2022-09-23T08:16:59.783Z,15.75
2022-09-23T08:19:27.606Z,15.79
2022-09-23T08:21:55.527Z,15.79
2022-09-23T08:24:24.252Z,15.80
2022-09-23T08:26:54.136Z,15.84
2022-09-23T08:29:24.951Z,15.90
2022-09-23T08:31:53.632Z,15.94
2022-09-23T08:34:23.701Z,15.97
2022-09-23T08:36:52.447Z,16.03
2022-09-23T08:39:21.538Z,16.07
2022-09-23T08:42:21.825Z,16.13
2022-09-23T08:44:55.142Z,16.16
2022-09-23T08:47:40.819Z,16.18
2022-09-23T08:50:14.356Z,16.22
2022-09-23T08:53:02.797Z,16.28
2022-09-23T08:55:50.890Z,16.27
2022-09-23T08:58:35.196Z,16.33
2022-09-23T09:01:27.771Z,16.37
2022-09-23T09:04:22.494Z,16.43
2022-09-23T09:07:24.477Z,16.47
2022-09-23T09:10:20.136Z,16.51
2022-09-23T09:13:10.929Z,16.57
2022-09-23T09:16:48.303Z,16.60
2022-09-23T09:19:23.874Z,16.67
2022-09-23T09:21:55.553Z,16.68
2022-09-23T09:24:35.360Z,16.69
2022-09-23T09:27:12.621Z,16.74
2022-09-23T09:29:50.109Z,16.80
2022-09-23T09:32:56.870Z,16.84
2022-09-23T09:35:36.833Z,16.91
2022-09-23T09:38:05.911Z,16.93
2022-09-23T09:40:35.257Z,16.96
2022-09-23T09:43:04.737Z,16.98
2022-09-23T09:46:14.774Z,17.05
2022-09-23T09:49:23.367Z,17.12
2022-09-23T09:52:29.722Z,17.16
2022-09-23T09:55:27.407Z,17.20
2022-09-23T09:58:05.748Z,17.21
2022-09-23T10:00:35.613Z,17.27
2022-09-23T10:03:39.806Z,17.24
2022-09-23T10:06:24.658Z,17.39
2022-09-23T10:09:12.786Z,17.43
2022-09-23T10:11:41.202Z,17.45
2022-09-23T10:14:19.200Z,17.54
2022-09-23T10:17:01.886Z,17.56
2022-09-23T10:19:30.104Z,17.54
2022-09-23T10:22:04.872Z,17.55
2022-09-23T10:24:36.963Z,17.61
2022-09-23T10:27:11.958Z,17.68
2022-09-23T10:29:47.983Z,17.70
2022-09-23T10:32:38.729Z,17.73
2022-09-23T10:35:09.353Z,17.77
2022-09-23T10:37:41.163Z,17.73
2022-09-23T10:40:44.795Z,17.72
2022-09-23T10:43:58.930Z,17.72
2022-09-23T10:46:45.912Z,17.90
2022-09-23T10:49:22.346Z,17.90
2022-09-23T10:52:14.725Z,18.00
2022-09-23T10:55:18.817Z,17.83
2022-09-23T10:57:46.525Z,18.09
2022-09-23T11:00:24.070Z,18.12
2022-09-23T11:03:24.977Z,18.21
2022-09-23T11:06:41.942Z,18.24
2022-09-23T11:09:47.320Z,18.32
2022-09-23T11:12:45.032Z,18.34
2022-09-23T11:16:12.762Z,18.37
2022-09-23T11:19:18.482Z,18.46
2022-09-23T11:22:37.477Z,18.39
2022-09-23T11:25:14.128Z,18.52
2022-09-23T11:28:17.899Z,18.55
2022-09-23T11:31:14.554Z,18.61
2022-09-23T11:33:48.960Z,18.57
2022-09-23T11:36:34.054Z,18.69
2022-09-23T11:39:20.881Z,18.74
2022-09-23T11:41:53.895Z,18.82
2022-09-23T11:44:41.200Z,18.89
2022-09-23T11:47:24.938Z,18.97
2022-09-23T11:50:19.822Z,19.06
2022-09-23T11:53:14.040Z,18.85
2022-09-23T11:55:57.927Z,19.24
2022-09-23T11:58:37.916Z,19.31
2022-09-23T12:01:37.360Z,19.26
2022-09-23T12:04:52.118Z,19.40
2022-09-23T12:07:37.718Z,19.51
2022-09-23T12:10:08.751Z,19.54
2022-09-23T12:12:36.405Z,19.51
2022-09-23T12:15:43.299Z,19.66
2022-09-23T12:18:23.267Z,19.73
2022-09-23T12:21:51.451Z,19.90
2022-09-23T12:24:31.436Z,20.03
2022-09-23T12:27:06.268Z,20.02
2022-09-23T12:29:36.863Z,20.08
2022-09-23T12:32:10.041Z,20.18
2022-09-23T12:34:49.006Z,20.10
2022-09-23T12:37:37.133Z,20.26
2022-09-23T12:40:30.326Z,20.43
2022-09-23T12:43:01.243Z,20.44
2022-09-23T12:45:32.640Z,20.41
2022-09-23T12:48:21.712Z,20.57
2022-09-23T12:51:06.711Z,20.48
2022-09-23T12:53:34.396Z,20.63
2022-09-23T12:56:31.715Z,20.77
2022-09-23T12:59:11.267Z,20.86
2022-09-23T13:01:39.724Z,20.87
2022-09-23T13:05:10.025Z,20.79
2022-09-23T13:07:45.853Z,21.00
2022-09-23T13:10:39.736Z,20.93
2022-09-23T13:13:24.941Z,21.12
2022-09-23T13:15:54.072Z,21.07
2022-09-23T13:18:21.784Z,21.19
2022-09-23T13:20:52.367Z,21.19
2022-09-23T13:23:28.579Z,21.28
2022-09-23T13:26:00.052Z,21.35
2022-09-23T13:28:59.054Z,21.33
2022-09-23T13:31:27.066Z,21.30
2022-09-23T13:34:03.015Z,21.36
2022-09-23T13:36:33.520Z,21.47
2022-09-23T13:39:26.583Z,21.53
2022-09-23T13:42:01.300Z,21.59
2022-09-23T13:44:29.803Z,21.68
2022-09-23T13:47:01.075Z,21.65
2022-09-23T13:49:36.567Z,21.47
2022-09-23T13:52:04.387Z,21.61
2022-09-23T13:54:38.273Z,21.77
2022-09-23T13:57:06.003Z,21.76
2022-09-23T13:59:42.458Z,21.59
2022-09-23T14:02:19.080Z,21.78
2022-09-23T14:04:47.134Z,21.81
2022-09-23T14:07:16.764Z,22.07
2022-09-23T14:09:49.106Z,22.25
2022-09-23T14:12:22.457Z,22.50
2022-09-23T14:14:51.857Z,22.89
2022-09-23T14:17:25.130Z,22.71
2022-09-23T14:19:52.964Z,22.85
2022-09-23T14:22:28.019Z,22.84
2022-09-23T14:24:57.460Z,22.65
2022-09-23T14:27:33.830Z,22.79
2022-09-23T14:30:04.024Z,22.74
2022-09-23T14:32:32.799Z,22.60
2022-09-23T14:35:00.435Z,22.52
2022-09-23T14:37:55.606Z,22.48
2022-09-23T14:40:29.668Z,22.46
2022-09-23T14:43:17.087Z,22.35
2022-09-23T14:45:50.487Z,22.28
2022-09-23T14:48:23.259Z,22.35
2022-09-23T14:51:04.541Z,22.25
2022-09-23T14:53:42.958Z,22.15
2022-09-23T14:56:20.848Z,21.95
2022-09-23T15:10:31.130Z,21.75
2022-09-23T15:13:27.271Z,21.77
2022-09-23T15:15:56.828Z,21.78
2022-09-23T15:18:34.026Z,21.65
2022-09-23T15:49:36.424Z,21.09
2022-09-23T15:52:07.058Z,20.93
2022-09-23T15:54:34.859Z,20.95
2022-09-23T15:57:02.741Z,20.87
2022-09-23T16:44:20.499Z,20.41
2022-09-23T16:46:48.306Z,20.37
2022-09-23T16:49:16.037Z,20.39
2022-09-23T16:51:43.876Z,20.35
2022-09-23T16:54:13.295Z,20.34
2022-09-23T17:14:14.536Z,19.95
2022-09-23T17:16:42.990Z,19.86
2022-09-23T17:19:12.410Z,19.77
2022-09-23T17:21:40.198Z,19.67
2022-09-23T17:24:08.009Z,19.61
2022-09-23T17:26:35.769Z,19.54
2022-09-23T17:29:04.810Z,19.46
2022-09-23T17:51:09.944Z,18.87
2022-09-23T17:53:40.153Z,18.81
2022-09-23T17:56:19.746Z,18.79
2022-09-23T17:58:49.609Z,18.78
2022-09-23T18:20:39.974Z,18.41
2022-09-23T18:23:07.727Z,18.38
2022-09-23T18:25:39.577Z,18.35
2022-09-23T18:28:07.706Z,18.35
2022-09-23T18:47:32.473Z,18.31
2022-09-23T18:50:18.613Z,18.32
2022-09-23T18:52:46.308Z,18.29
2022-09-23T18:55:14.295Z,18.26
2022-09-23T19:22:47.384Z,17.98
2022-09-23T19:25:17.476Z,17.96
2022-09-23T19:27:45.233Z,17.93
2022-09-23T19:30:13.566Z,17.90
2022-09-23T19:52:16.808Z,17.76
2022-09-23T19:54:45.198Z,17.74
2022-09-23T19:57:12.900Z,17.71
2022-09-23T19:59:40.740Z,17.70
2022-09-23T20:27:09.975Z,17.52
2022-09-23T20:29:38.067Z,17.49
2022-09-23T20:32:06.137Z,17.48
2022-09-23T20:34:33.969Z,17.49
2022-09-23T20:37:01.779Z,17.47
2022-09-23T20:39:32.405Z,17.46
2022-09-23T20:42:00.558Z,17.42
2022-09-23T20:44:28.665Z,17.37
2022-09-23T20:46:56.494Z,17.37
2022-09-23T20:49:24.216Z,17.39
2022-09-23T20:51:51.981Z,17.41
2022-09-23T20:54:19.875Z,17.38
2022-09-23T20:56:48.120Z,17.38
2022-09-23T20:59:17.763Z,17.39
2022-09-23T21:01:46.760Z,17.38
2022-09-23T21:04:14.587Z,17.35
2022-09-23T21:06:42.618Z,17.36
2022-09-23T21:09:10.369Z,17.32
2022-09-23T21:11:38.207Z,17.31
2022-09-23T21:14:06.123Z,17.33
2022-09-23T21:16:34.328Z,17.33
2022-09-23T21:19:03.353Z,17.33
2022-09-23T21:21:31.153Z,17.35
2022-09-23T21:24:17.192Z,17.33
2022-09-23T21:26:47.805Z,17.34
2022-09-23T21:29:15.534Z,17.28
2022-09-23T21:31:43.360Z,17.27
2022-09-23T21:34:11.665Z,17.25
2022-09-23T21:36:44.220Z,17.21
2022-09-23T21:39:12.615Z,17.18
2022-09-23T21:41:40.543Z,17.15
2022-09-23T21:44:08.752Z,17.13
2022-09-23T21:46:37.307Z,17.16
2022-09-23T21:49:05.676Z,17.15
2022-09-23T21:51:40.522Z,17.16
2022-09-23T21:54:15.936Z,17.14
2022-09-23T21:56:44.497Z,17.11
2022-09-23T21:59:12.434Z,17.07
2022-09-23T22:01:49.307Z,17.07
2022-09-23T22:04:20.721Z,17.02
2022-09-23T22:06:49.162Z,16.96
2022-09-23T22:09:20.620Z,16.95
2022-09-23T22:12:09.618Z,16.91
2022-09-23T22:14:39.084Z,16.82
2022-09-23T22:17:11.473Z,16.79
2022-09-23T22:19:44.240Z,16.73
2022-09-23T22:22:16.613Z,16.71
2022-09-23T22:24:46.974Z,16.68
2022-09-23T22:27:18.876Z,16.66
2022-09-23T22:30:05.312Z,16.66
2022-09-23T22:32:43.507Z,16.65
2022-09-23T22:35:17.585Z,16.65
2022-09-23T22:37:46.014Z,16.73
2022-09-23T22:40:15.743Z,16.69
2022-09-23T22:42:44.287Z,16.65
2022-09-23T22:45:12.555Z,16.63
2022-09-23T22:47:45.270Z,16.63
2022-09-23T22:50:14.722Z,16.64
2022-09-23T22:52:42.754Z,16.63
2022-09-23T22:55:11.822Z,16.63
2022-09-23T22:57:39.609Z,16.63
2022-09-23T23:00:09.427Z,16.64
2022-09-23T23:02:37.244Z,16.64
2022-09-23T23:05:05.580Z,16.65
2022-09-23T23:07:35.082Z,16.64
2022-09-23T23:10:04.002Z,16.64
2022-09-23T23:12:33.465Z,16.66
2022-09-23T23:15:01.239Z,16.68
2022-09-23T23:17:29.803Z,16.70
2022-09-23T23:19:58.015Z,16.67
2022-09-23T23:22:28.658Z,16.66
2022-09-23T23:24:56.726Z,16.65
2022-09-23T23:27:24.559Z,16.65
2022-09-23T23:29:52.302Z,16.64
2022-09-23T23:32:20.022Z,16.60
2022-09-23T23:34:47.757Z,16.55
2022-09-23T23:37:20.080Z,16.55
2022-09-23T23:39:48.634Z,16.53
2022-09-23T23:42:16.342Z,16.50
2022-09-23T23:44:44.414Z,16.49
2022-09-23T23:47:13.281Z,16.49
2022-09-23T23:49:41.024Z,16.51
2022-09-23T23:52:08.894Z,16.50
2022-09-23T23:54:36.645Z,16.52
2022-09-23T23:57:04.570Z,16.54
2022-09-23T23:59:34.362Z,16.57
